Decoded Metar for CYXY (WHITEHORSE in YT, CANADA) (IATA:YXY) | Meteo·Mobile Aviation Weather
aviador You're here:

CYXY Decoded Metar

WHITEHORSE in YT, CANADA
Report Time2019-01-21 15:00:00
UTC Time2019-01-21 15:31:55
Flight Rules vfr VFR
WindCalm
Visibility9999 m
Phenomena:Light Snow
Clouds:Scattered 020 Hf
Overcast 067 Hf
Expected CloudBase > 1,200 ft AGL from Temp-Dew spread
Ceiling6,700 ft
Temp-18°C (ISA -28)
Dew Point-21°C (78% RH)
AAT-21.6°C
QNH1008 hPa
Density Alt-1,093 ft
Elevation2,306 ft
Report Wrong Elevation
Raw Report
CYXY 211500Z 00000KT 15SM -SN SCT020 OVC067 M18/M21 A2978 RMK
SC3AC5 SLP161=

Extra information for CYXY:More info

Metar Taf Metar & Taf Last 4 Metars F.Rules Stats Wind Profile Meteogram Temp Stats Airport Information Weather charts Add Link Nearby VenuesMetar ALERT Operation Metar Decoded Social comments